sensor_id;sensor_type;location;lat;lon;timestamp;pressure;altitude;pressure_sealevel;temperature;humidity
33161;BME280;19522;45.656;11.302;2023-04-28T00:01:14;98684.19;;;10.29;83.46
33161;BME280;19522;45.656;11.302;2023-04-28T00:03:40;98693.28;;;10.37;83.58
33161;BME280;19522;45.656;11.302;2023-04-28T00:06:06;98689.13;;;10.26;83.94
33161;BME280;19522;45.656;11.302;2023-04-28T00:08:31;98695.53;;;10.33;84.64
33161;BME280;19522;45.656;11.302;2023-04-28T00:10:57;98692.00;;;10.56;83.15
33161;BME280;19522;45.656;11.302;2023-04-28T00:13:23;98682.81;;;10.57;83.09
33161;BME280;19522;45.656;11.302;2023-04-28T00:15:52;98667.34;;;10.34;83.53
33161;BME280;19522;45.656;11.302;2023-04-28T00:18:18;98689.22;;;10.41;83.69
33161;BME280;19522;45.656;11.302;2023-04-28T00:20:44;98676.31;;;10.43;83.92
33161;BME280;19522;45.656;11.302;2023-04-28T00:23:09;98678.28;;;10.49;83.66
33161;BME280;19522;45.656;11.302;2023-04-28T00:25:35;98650.03;;;10.35;83.21
33161;BME280;19522;45.656;11.302;2023-04-28T00:28:00;98675.03;;;10.54;83.65
33161;BME280;19522;45.656;11.302;2023-04-28T00:30:26;98656.84;;;10.54;82.66
33161;BME280;19522;45.656;11.302;2023-04-28T00:32:51;98639.88;;;10.37;82.22
33161;BME280;19522;45.656;11.302;2023-04-28T00:35:17;98659.72;;;10.76;81.26
33161;BME280;19522;45.656;11.302;2023-04-28T00:37:43;98629.94;;;10.68;80.16
33161;BME280;19522;45.656;11.302;2023-04-28T00:40:08;98652.00;;;10.65;80.80
33161;BME280;19522;45.656;11.302;2023-04-28T00:42:35;98653.84;;;10.49;82.05
33161;BME280;19522;45.656;11.302;2023-04-28T00:45:00;98668.19;;;10.43;82.74
33161;BME280;19522;45.656;11.302;2023-04-28T00:47:31;98596.88;;;9.79;83.90
33161;BME280;19522;45.656;11.302;2023-04-28T00:49:58;98668.97;;;10.20;84.42
33161;BME280;19522;45.656;11.302;2023-04-28T00:52:23;98676.50;;;10.10;85.02
33161;BME280;19522;45.656;11.302;2023-04-28T00:54:49;98644.16;;;9.77;86.30
33161;BME280;19522;45.656;11.302;2023-04-28T00:57:14;98652.25;;;9.85;86.26
33161;BME280;19522;45.656;11.302;2023-04-28T00:59:40;98662.88;;;9.95;85.75
33161;BME280;19522;45.656;11.302;2023-04-28T01:02:06;98654.19;;;10.00;85.58
33161;BME280;19522;45.656;11.302;2023-04-28T01:04:32;98667.34;;;10.11;84.45
33161;BME280;19522;45.656;11.302;2023-04-28T01:06:59;98673.75;;;10.18;85.09
33161;BME280;19522;45.656;11.302;2023-04-28T01:09:25;98673.53;;;10.20;84.34
33161;BME280;19522;45.656;11.302;2023-04-28T01:11:50;98626.44;;;9.89;84.50
33161;BME280;19522;45.656;11.302;2023-04-28T01:14:16;98665.78;;;10.17;84.19
33161;BME280;19522;45.656;11.302;2023-04-28T01:16:41;98674.22;;;10.22;84.33
33161;BME280;19522;45.656;11.302;2023-04-28T01:19:14;98649.78;;;9.98;85.08
33161;BME280;19522;45.656;11.302;2023-04-28T01:21:41;98668.44;;;10.25;84.81
33161;BME280;19522;45.656;11.302;2023-04-28T01:24:07;98646.94;;;10.15;84.94
33161;BME280;19522;45.656;11.302;2023-04-28T01:26:32;98655.75;;;10.17;85.13
33161;BME280;19522;45.656;11.302;2023-04-28T01:28:58;98654.94;;;10.17;85.05
33161;BME280;19522;45.656;11.302;2023-04-28T01:31:24;98664.22;;;10.22;85.31
33161;BME280;19522;45.656;11.302;2023-04-28T01:33:50;98663.50;;;10.28;85.07
33161;BME280;19522;45.656;11.302;2023-04-28T01:36:15;98663.69;;;10.27;84.96
33161;BME280;19522;45.656;11.302;2023-04-28T01:38:41;98665.53;;;10.26;84.58
33161;BME280;19522;45.656;11.302;2023-04-28T01:41:06;98643.06;;;10.41;82.91
33161;BME280;19522;45.656;11.302;2023-04-28T01:43:32;98662.28;;;10.54;82.62
33161;BME280;19522;45.656;11.302;2023-04-28T01:45:57;98636.97;;;10.39;82.30
33161;BME280;19522;45.656;11.302;2023-04-28T01:48:23;98670.81;;;10.51;83.00
33161;BME280;19522;45.656;11.302;2023-04-28T01:50:48;98669.03;;;10.35;83.86
33161;BME280;19522;45.656;11.302;2023-04-28T01:53:13;98667.03;;;10.37;83.97
33161;BME280;19522;45.656;11.302;2023-04-28T01:55:39;98651.06;;;10.11;84.63
33161;BME280;19522;45.656;11.302;2023-04-28T01:58:05;98677.41;;;10.25;85.23
33161;BME280;19522;45.656;11.302;2023-04-28T02:00:31;98658.38;;;10.34;84.50
33161;BME280;19522;45.656;11.302;2023-04-28T02:02:56;98666.41;;;10.50;83.35
33161;BME280;19522;45.656;11.302;2023-04-28T02:05:22;98639.72;;;10.31;83.06
33161;BME280;19522;45.656;11.302;2023-04-28T02:07:47;98660.97;;;10.27;83.97
33161;BME280;19522;45.656;11.302;2023-04-28T02:10:13;98702.25;;;10.46;83.96
33161;BME280;19522;45.656;11.302;2023-04-28T02:12:38;98698.97;;;10.27;84.74
33161;BME280;19522;45.656;11.302;2023-04-28T02:15:07;98693.88;;;10.24;85.63
33161;BME280;19522;45.656;11.302;2023-04-28T02:17:33;98689.13;;;10.26;85.45
33161;BME280;19522;45.656;11.302;2023-04-28T02:19:58;98678.97;;;10.20;86.29
33161;BME280;19522;45.656;11.302;2023-04-28T02:22:24;98673.38;;;10.21;85.13
33161;BME280;19522;45.656;11.302;2023-04-28T02:24:50;98683.56;;;10.19;85.77
33161;BME280;19522;45.656;11.302;2023-04-28T02:27:16;98663.63;;;10.12;86.01
33161;BME280;19522;45.656;11.302;2023-04-28T02:29:42;98675.56;;;10.26;86.04
33161;BME280;19522;45.656;11.302;2023-04-28T02:32:07;98666.47;;;10.42;84.80
33161;BME280;19522;45.656;11.302;2023-04-28T02:34:33;98654.88;;;10.48;84.17
33161;BME280;19522;45.656;11.302;2023-04-28T02:36:58;98613.28;;;10.24;84.07
33161;BME280;19522;45.656;11.302;2023-04-28T02:39:24;98649.66;;;10.47;84.08
33161;BME280;19522;45.656;11.302;2023-04-28T02:41:54;98651.06;;;10.34;84.99
33161;BME280;19522;45.656;11.302;2023-04-28T02:44:19;98651.88;;;10.43;84.83
33161;BME280;19522;45.656;11.302;2023-04-28T02:46:45;98574.56;;;9.92;84.97
33161;BME280;19522;45.656;11.302;2023-04-28T02:49:10;98656.81;;;10.39;85.03
33161;BME280;19522;45.656;11.302;2023-04-28T02:51:36;98651.81;;;10.51;84.54
33161;BME280;19522;45.656;11.302;2023-04-28T02:54:02;98622.66;;;10.45;84.21
33161;BME280;19522;45.656;11.302;2023-04-28T02:56:27;98653.50;;;10.52;84.55
33161;BME280;19522;45.656;11.302;2023-04-28T02:58:54;98663.75;;;10.42;84.62
33161;BME280;19522;45.656;11.302;2023-04-28T03:01:20;98623.38;;;10.16;84.85
33161;BME280;19522;45.656;11.302;2023-04-28T03:03:45;98657.94;;;10.45;84.60
33161;BME280;19522;45.656;11.302;2023-04-28T03:06:11;98636.69;;;10.25;85.15
33161;BME280;19522;45.656;11.302;2023-04-28T03:08:36;98656.66;;;10.41;85.27
33161;BME280;19522;45.656;11.302;2023-04-28T03:11:01;98650.94;;;10.27;85.36
33161;BME280;19522;45.656;11.302;2023-04-28T03:13:27;98647.16;;;10.13;85.55
33161;BME280;19522;45.656;11.302;2023-04-28T03:15:54;98669.53;;;10.16;86.62
33161;BME280;19522;45.656;11.302;2023-04-28T03:18:20;98671.16;;;10.02;87.12
33161;BME280;19522;45.656;11.302;2023-04-28T03:20:47;98646.28;;;9.66;88.26
33161;BME280;19522;45.656;11.302;2023-04-28T03:23:12;98649.31;;;9.63;88.66
33161;BME280;19522;45.656;11.302;2023-04-28T03:25:38;98657.56;;;9.78;88.59
33161;BME280;19522;45.656;11.302;2023-04-28T03:28:03;98658.16;;;9.89;88.44
33161;BME280;19522;45.656;11.302;2023-04-28T03:30:29;98637.41;;;9.73;88.45
33161;BME280;19522;45.656;11.302;2023-04-28T03:32:55;98615.28;;;9.61;89.46
33161;BME280;19522;45.656;11.302;2023-04-28T03:35:20;98629.81;;;9.68;89.61
33161;BME280;19522;45.656;11.302;2023-04-28T03:37:46;98615.56;;;9.66;89.03
33161;BME280;19522;45.656;11.302;2023-04-28T03:40:11;98573.00;;;9.43;88.92
33161;BME280;19522;45.656;11.302;2023-04-28T03:42:37;98615.38;;;9.76;88.88
33161;BME280;19522;45.656;11.302;2023-04-28T03:45:03;98630.72;;;10.07;87.35
33161;BME280;19522;45.656;11.302;2023-04-28T03:47:28;98644.84;;;10.25;86.25
33161;BME280;19522;45.656;11.302;2023-04-28T03:49:54;98644.38;;;10.22;86.17
33161;BME280;19522;45.656;11.302;2023-04-28T03:52:19;98611.13;;;9.96;86.30
33161;BME280;19522;45.656;11.302;2023-04-28T03:54:45;98652.38;;;10.15;86.53
33161;BME280;19522;45.656;11.302;2023-04-28T03:57:11;98626.63;;;9.88;86.92
33161;BME280;19522;45.656;11.302;2023-04-28T03:59:37;98658.34;;;10.10;87.05
33161;BME280;19522;45.656;11.302;2023-04-28T04:02:02;98613.06;;;9.64;87.62
33161;BME280;19522;45.656;11.302;2023-04-28T04:04:28;98668.16;;;9.88;88.66
33161;BME280;19522;45.656;11.302;2023-04-28T04:06:54;98586.63;;;9.58;87.36
33161;BME280;19522;45.656;11.302;2023-04-28T04:09:19;98665.78;;;10.17;86.60
33161;BME280;19522;45.656;11.302;2023-04-28T04:11:45;98658.72;;;10.07;86.69
33161;BME280;19522;45.656;11.302;2023-04-28T04:14:11;98650.94;;;10.04;87.17
33161;BME280;19522;45.656;11.302;2023-04-28T04:16:37;98593.75;;;9.59;86.68
33161;BME280;19522;45.656;11.302;2023-04-28T04:19:02;98644.94;;;9.86;88.19
33161;BME280;19522;45.656;11.302;2023-04-28T04:21:28;98643.25;;;9.85;88.14
33161;BME280;19522;45.656;11.302;2023-04-28T04:23:54;98630.91;;;9.82;87.69
33161;BME280;19522;45.656;11.302;2023-04-28T04:26:19;98656.44;;;9.96;87.65
33161;BME280;19522;45.656;11.302;2023-04-28T04:28:45;98664.84;;;10.01;87.33
33161;BME280;19522;45.656;11.302;2023-04-28T04:31:10;98675.09;;;9.91;87.78
33161;BME280;19522;45.656;11.302;2023-04-28T04:33:36;98650.81;;;9.97;87.26
33161;BME280;19522;45.656;11.302;2023-04-28T04:36:03;98665.66;;;10.10;87.43
33161;BME280;19522;45.656;11.302;2023-04-28T04:38:29;98673.25;;;10.14;87.35
33161;BME280;19522;45.656;11.302;2023-04-28T04:40:55;98681.22;;;10.16;87.37
33161;BME280;19522;45.656;11.302;2023-04-28T04:43:20;98655.63;;;10.10;86.67
33161;BME280;19522;45.656;11.302;2023-04-28T04:45:46;98658.69;;;10.39;85.33
33161;BME280;19522;45.656;11.302;2023-04-28T04:48:11;98648.84;;;10.38;84.52
33161;BME280;19522;45.656;11.302;2023-04-28T04:50:37;98673.53;;;10.51;84.89
33161;BME280;19522;45.656;11.302;2023-04-28T04:53:02;98607.34;;;10.06;84.78
33161;BME280;19522;45.656;11.302;2023-04-28T04:55:29;98663.38;;;10.45;85.02
33161;BME280;19522;45.656;11.302;2023-04-28T04:57:54;98668.09;;;10.28;86.85
33161;BME280;19522;45.656;11.302;2023-04-28T05:00:20;98650.75;;;10.06;87.09
33161;BME280;19522;45.656;11.302;2023-04-28T05:02:46;98683.88;;;10.24;87.20
33161;BME280;19522;45.656;11.302;2023-04-28T05:05:11;98670.75;;;10.13;87.78
33161;BME280;19522;45.656;11.302;2023-04-28T05:07:37;98681.13;;;10.33;87.17
33161;BME280;19522;45.656;11.302;2023-04-28T05:10:03;98688.75;;;10.37;87.02
33161;BME280;19522;45.656;11.302;2023-04-28T05:12:28;98677.16;;;10.43;87.11
33161;BME280;19522;45.656;11.302;2023-04-28T05:14:54;98672.88;;;10.49;86.75
33161;BME280;19522;45.656;11.302;2023-04-28T05:17:19;98681.41;;;10.61;86.91
33161;BME280;19522;45.656;11.302;2023-04-28T05:19:45;98625.97;;;10.32;86.73
33161;BME280;19522;45.656;11.302;2023-04-28T05:22:10;98671.50;;;10.68;86.21
33161;BME280;19522;45.656;11.302;2023-04-28T05:24:36;98683.97;;;10.78;85.84
33161;BME280;19522;45.656;11.302;2023-04-28T05:27:02;98687.78;;;10.91;85.16
33161;BME280;19522;45.656;11.302;2023-04-28T05:29:27;98685.69;;;10.94;84.83
33161;BME280;19522;45.656;11.302;2023-04-28T05:31:58;98682.16;;;10.93;85.06
33161;BME280;19522;45.656;11.302;2023-04-28T05:34:24;98690.31;;;11.08;85.25
33161;BME280;19522;45.656;11.302;2023-04-28T05:36:50;98681.41;;;11.14;84.58
33161;BME280;19522;45.656;11.302;2023-04-28T05:39:16;98658.75;;;11.22;83.19
33161;BME280;19522;45.656;11.302;2023-04-28T05:41:41;98646.06;;;11.14;82.53
33161;BME280;19522;45.656;11.302;2023-04-28T05:44:07;98705.31;;;11.04;84.68
33161;BME280;19522;45.656;11.302;2023-04-28T05:46:32;98694.94;;;10.84;87.24
33161;BME280;19522;45.656;11.302;2023-04-28T05:48:58;98677.34;;;10.80;87.19
33161;BME280;19522;45.656;11.302;2023-04-28T05:51:24;98691.44;;;10.99;86.88
33161;BME280;19522;45.656;11.302;2023-04-28T05:53:49;98666.59;;;11.02;86.05
33161;BME280;19522;45.656;11.302;2023-04-28T05:56:15;98697.53;;;11.61;82.81
33161;BME280;19522;45.656;11.302;2023-04-28T05:58:41;98694.91;;;11.67;81.96
33161;BME280;19522;45.656;11.302;2023-04-28T06:01:08;98683.22;;;11.89;79.52
33161;BME280;19522;45.656;11.302;2023-04-28T06:03:34;98704.72;;;11.83;80.64
33161;BME280;19522;45.656;11.302;2023-04-28T06:05:59;98643.47;;;11.36;81.57
33161;BME280;19522;45.656;11.302;2023-04-28T06:08:25;98668.94;;;11.50;80.81
33161;BME280;19522;45.656;11.302;2023-04-28T06:10:50;98714.16;;;11.66;81.46
33161;BME280;19522;45.656;11.302;2023-04-28T06:13:16;98711.50;;;11.88;81.75
33161;BME280;19522;45.656;11.302;2023-04-28T06:15:41;98710.91;;;12.07;81.20
33161;BME280;19522;45.656;11.302;2023-04-28T06:18:06;98707.31;;;12.22;80.24
33161;BME280;19522;45.656;11.302;2023-04-28T06:20:34;98691.75;;;12.15;79.72
33161;BME280;19522;45.656;11.302;2023-04-28T06:23:00;98693.94;;;12.27;79.60
33161;BME280;19522;45.656;11.302;2023-04-28T06:25:27;98718.16;;;12.58;78.91
33161;BME280;19522;45.656;11.302;2023-04-28T06:27:53;98703.75;;;12.43;78.61
33161;BME280;19522;45.656;11.302;2023-04-28T06:30:21;98697.25;;;12.22;79.45
33161;BME280;19522;45.656;11.302;2023-04-28T06:32:47;98708.75;;;12.61;79.30
33161;BME280;19522;45.656;11.302;2023-04-28T06:35:14;98665.22;;;12.46;79.06
33161;BME280;19522;45.656;11.302;2023-04-28T06:37:39;98714.69;;;12.93;78.61
33161;BME280;19522;45.656;11.302;2023-04-28T06:40:06;98709.31;;;13.06;77.02
33161;BME280;19522;45.656;11.302;2023-04-28T06:42:32;98657.56;;;12.85;76.66
33161;BME280;19522;45.656;11.302;2023-04-28T06:44:58;98713.69;;;13.29;76.27
33161;BME280;19522;45.656;11.302;2023-04-28T06:47:23;98704.03;;;13.27;76.38
33161;BME280;19522;45.656;11.302;2023-04-28T06:49:49;98713.78;;;13.43;76.03
33161;BME280;19522;45.656;11.302;2023-04-28T06:52:15;98704.91;;;13.34;75.16
33161;BME280;19522;45.656;11.302;2023-04-28T06:54:40;98712.38;;;13.25;74.83
33161;BME280;19522;45.656;11.302;2023-04-28T06:57:06;98729.91;;;13.37;75.00
33161;BME280;19522;45.656;11.302;2023-04-28T06:59:31;98697.78;;;13.33;74.78
33161;BME280;19522;45.656;11.302;2023-04-28T07:01:57;98709.72;;;13.60;72.53
33161;BME280;19522;45.656;11.302;2023-04-28T07:04:23;98706.69;;;13.83;68.09
33161;BME280;19522;45.656;11.302;2023-04-28T07:06:48;98705.06;;;14.02;65.91
33161;BME280;19522;45.656;11.302;2023-04-28T07:09:14;98704.44;;;14.07;64.96
33161;BME280;19522;45.656;11.302;2023-04-28T07:11:40;98712.00;;;13.98;64.47
33161;BME280;19522;45.656;11.302;2023-04-28T07:14:06;98704.00;;;13.55;66.66
33161;BME280;19522;45.656;11.302;2023-04-28T07:16:32;98704.16;;;13.89;67.27
33161;BME280;19522;45.656;11.302;2023-04-28T07:18:58;98666.47;;;13.57;67.95
33161;BME280;19522;45.656;11.302;2023-04-28T07:21:23;98682.09;;;13.77;67.69
33161;BME280;19522;45.656;11.302;2023-04-28T07:23:50;98659.63;;;13.81;68.94
33161;BME280;19522;45.656;11.302;2023-04-28T07:26:15;98687.69;;;14.17;66.88
33161;BME280;19522;45.656;11.302;2023-04-28T07:28:43;98690.22;;;14.25;65.50
33161;BME280;19522;45.656;11.302;2023-04-28T07:31:09;98688.28;;;14.19;65.35
33161;BME280;19522;45.656;11.302;2023-04-28T07:33:34;98676.75;;;14.24;65.89
33161;BME280;19522;45.656;11.302;2023-04-28T07:36:00;98680.56;;;14.36;65.56
33161;BME280;19522;45.656;11.302;2023-04-28T07:38:25;98700.22;;;14.67;65.50
33161;BME280;19522;45.656;11.302;2023-04-28T07:40:51;98702.09;;;14.86;63.91
33161;BME280;19522;45.656;11.302;2023-04-28T07:43:17;98684.63;;;14.87;63.29
33161;BME280;19522;45.656;11.302;2023-04-28T07:45:42;98705.06;;;15.05;63.85
33161;BME280;19522;45.656;11.302;2023-04-28T07:48:09;98695.78;;;15.06;61.63
33161;BME280;19522;45.656;11.302;2023-04-28T07:50:35;98667.19;;;15.02;59.90
33161;BME280;19522;45.656;11.302;2023-04-28T07:53:00;98690.94;;;14.81;60.78
33161;BME280;19522;45.656;11.302;2023-04-28T07:55:26;98689.06;;;14.88;61.01
33161;BME280;19522;45.656;11.302;2023-04-28T07:57:51;98686.28;;;15.22;61.70
33161;BME280;19522;45.656;11.302;2023-04-28T08:00:17;98669.22;;;15.40;60.99
33161;BME280;19522;45.656;11.302;2023-04-28T08:02:43;98676.09;;;15.63;59.43
33161;BME280;19522;45.656;11.302;2023-04-28T08:05:09;98687.13;;;16.01;57.62
33161;BME280;19522;45.656;11.302;2023-04-28T08:07:34;98687.28;;;16.13;55.75
33161;BME280;19522;45.656;11.302;2023-04-28T08:10:02;98655.59;;;15.85;55.34
33161;BME280;19522;45.656;11.302;2023-04-28T08:12:27;98606.63;;;14.91;56.57
33161;BME280;19522;45.656;11.302;2023-04-28T08:14:53;98698.94;;;15.03;57.98
33161;BME280;19522;45.656;11.302;2023-04-28T08:17:18;98668.44;;;14.92;59.03
33161;BME280;19522;45.656;11.302;2023-04-28T08:19:44;98699.13;;;15.28;59.27
33161;BME280;19522;45.656;11.302;2023-04-28T08:22:11;98695.34;;;15.16;59.46
33161;BME280;19522;45.656;11.302;2023-04-28T08:24:36;98679.34;;;15.06;59.88
33161;BME280;19522;45.656;11.302;2023-04-28T08:27:02;98693.91;;;15.13;60.08
33161;BME280;19522;45.656;11.302;2023-04-28T08:29:29;98693.47;;;14.89;59.76
33161;BME280;19522;45.656;11.302;2023-04-28T08:31:55;98678.31;;;14.60;60.90
33161;BME280;19522;45.656;11.302;2023-04-28T08:34:20;98648.44;;;14.52;61.69
33161;BME280;19522;45.656;11.302;2023-04-28T08:36:46;98682.31;;;14.98;61.24
33161;BME280;19522;45.656;11.302;2023-04-28T08:39:11;98629.75;;;14.69;61.38
33161;BME280;19522;45.656;11.302;2023-04-28T08:41:37;98681.03;;;15.07;60.64
33161;BME280;19522;45.656;11.302;2023-04-28T08:44:10;98683.19;;;15.05;60.82
33161;BME280;19522;45.656;11.302;2023-04-28T08:46:39;98644.25;;;14.62;60.52
33161;BME280;19522;45.656;11.302;2023-04-28T08:49:13;98666.34;;;14.81;59.61
33161;BME280;19522;45.656;11.302;2023-04-28T08:52:08;98655.84;;;14.71;59.88
33161;BME280;19522;45.656;11.302;2023-04-28T08:54:30;98702.72;;;14.75;61.22
33161;BME280;19522;45.656;11.302;2023-04-28T08:56:56;98675.13;;;14.43;60.99
33161;BME280;19522;45.656;11.302;2023-04-28T08:59:22;98683.81;;;14.80;61.14
33161;BME280;19522;45.656;11.302;2023-04-28T09:01:48;98687.59;;;14.92;61.85
33161;BME280;19522;45.656;11.302;2023-04-28T09:04:18;98686.09;;;15.23;60.60
33161;BME280;19522;45.656;11.302;2023-04-28T09:06:44;98678.25;;;15.47;60.69
33161;BME280;19522;45.656;11.302;2023-04-28T09:09:31;98682.44;;;15.56;59.23
33161;BME280;19522;45.656;11.302;2023-04-28T09:11:59;98686.22;;;15.55;59.18
33161;BME280;19522;45.656;11.302;2023-04-28T09:14:26;98682.69;;;15.35;59.65
33161;BME280;19522;45.656;11.302;2023-04-28T09:16:52;98668.41;;;15.06;59.15
33161;BME280;19522;45.656;11.302;2023-04-28T09:19:18;98632.69;;;14.94;58.64
33161;BME280;19522;45.656;11.302;2023-04-28T09:21:52;98672.59;;;15.29;59.70
33161;BME280;19522;45.656;11.302;2023-04-28T09:24:31;98671.63;;;15.75;57.66
33161;BME280;19522;45.656;11.302;2023-04-28T09:27:01;98652.56;;;15.41;57.58
33161;BME280;19522;45.656;11.302;2023-04-28T09:29:28;98646.69;;;15.38;55.98
33161;BME280;19522;45.656;11.302;2023-04-28T09:31:55;98672.53;;;15.55;57.71
33161;BME280;19522;45.656;11.302;2023-04-28T09:34:47;98593.56;;;14.93;57.73
33161;BME280;19522;45.656;11.302;2023-04-28T09:39:46;98637.44;;;15.32;56.67
33161;BME280;19522;45.656;11.302;2023-04-28T09:44:57;98633.44;;;15.35;56.33
33161;BME280;19522;45.656;11.302;2023-04-28T09:47:23;98648.13;;;15.47;56.33
33161;BME280;19522;45.656;11.302;2023-04-28T09:49:59;98666.63;;;15.58;56.08
33161;BME280;19522;45.656;11.302;2023-04-28T09:52:26;98671.28;;;15.58;54.95
33161;BME280;19522;45.656;11.302;2023-04-28T09:54:53;98638.38;;;15.65;54.25
33161;BME280;19522;45.656;11.302;2023-04-28T09:57:19;98633.56;;;15.60;54.20
33161;BME280;19522;45.656;11.302;2023-04-28T09:59:51;98655.34;;;15.94;54.31
33161;BME280;19522;45.656;11.302;2023-04-28T10:02:18;98658.91;;;16.01;54.17
33161;BME280;19522;45.656;11.302;2023-04-28T10:04:46;98655.31;;;16.00;54.20
33161;BME280;19522;45.656;11.302;2023-04-28T10:07:12;98654.13;;;15.89;52.11
33161;BME280;19522;45.656;11.302;2023-04-28T10:09:44;98665.06;;;15.89;51.38
33161;BME280;19522;45.656;11.302;2023-04-28T10:12:24;98656.44;;;16.25;53.60
33161;BME280;19522;45.656;11.302;2023-04-28T10:14:51;98607.53;;;16.54;50.13
33161;BME280;19522;45.656;11.302;2023-04-28T10:17:21;98618.34;;;16.74;50.95
33161;BME280;19522;45.656;11.302;2023-04-28T10:19:48;98629.38;;;16.92;50.75
33161;BME280;19522;45.656;11.302;2023-04-28T10:27:40;98581.84;;;16.73;48.36
33161;BME280;19522;45.656;11.302;2023-04-28T10:30:17;98610.31;;;17.23;48.09
33161;BME280;19522;45.656;11.302;2023-04-28T10:32:43;98588.72;;;17.08;47.85
33161;BME280;19522;45.656;11.302;2023-04-28T10:38:04;98590.78;;;17.12;47.99
33161;BME280;19522;45.656;11.302;2023-04-28T10:42:55;98590.97;;;16.92;48.54
33161;BME280;19522;45.656;11.302;2023-04-28T10:56:19;98567.22;;;17.23;45.73
33161;BME280;19522;45.656;11.302;2023-04-28T10:58:58;98534.59;;;17.15;47.65
33161;BME280;19522;45.656;11.302;2023-04-28T11:01:28;98549.75;;;17.36;44.28
33161;BME280;19522;45.656;11.302;2023-04-28T11:04:04;98525.28;;;17.35;45.77
33161;BME280;19522;45.656;11.302;2023-04-28T11:06:40;98566.34;;;17.29;43.53
33161;BME280;19522;45.656;11.302;2023-04-28T11:19:17;98567.09;;;17.67;43.25
33161;BME280;19522;45.656;11.302;2023-04-28T11:21:43;98561.69;;;17.60;44.15
33161;BME280;19522;45.656;11.302;2023-04-28T11:24:09;98559.03;;;17.72;43.83
33161;BME280;19522;45.656;11.302;2023-04-28T11:26:36;98560.03;;;18.20;41.58
33161;BME280;19522;45.656;11.302;2023-04-28T11:29:02;98538.78;;;18.28;42.31
33161;BME280;19522;45.656;11.302;2023-04-28T11:31:28;98534.41;;;17.96;41.16
33161;BME280;19522;45.656;11.302;2023-04-28T11:33:59;98553.53;;;18.03;42.26
33161;BME280;19522;45.656;11.302;2023-04-28T11:36:32;98554.97;;;18.05;43.20
33161;BME280;19522;45.656;11.302;2023-04-28T11:39:03;98532.13;;;17.93;40.80
33161;BME280;19522;45.656;11.302;2023-04-28T11:41:39;98553.78;;;18.01;41.55
33161;BME280;19522;45.656;11.302;2023-04-28T11:44:18;98559.13;;;17.96;45.12
33161;BME280;19522;45.656;11.302;2023-04-28T11:46:55;98535.31;;;17.90;41.44
33161;BME280;19522;45.656;11.302;2023-04-28T11:49:40;98526.34;;;18.13;42.18
33161;BME280;19522;45.656;11.302;2023-04-28T11:52:07;98522.81;;;18.60;43.25
33161;BME280;19522;45.656;11.302;2023-04-28T11:54:34;98532.59;;;19.04;42.91
33161;BME280;19522;45.656;11.302;2023-04-28T11:57:00;98539.63;;;18.88;39.94
33161;BME280;19522;45.656;11.302;2023-04-28T11:59:30;98526.03;;;19.05;39.95
33161;BME280;19522;45.656;11.302;2023-04-28T12:01:59;98475.53;;;18.87;40.02
33161;BME280;19522;45.656;11.302;2023-04-28T12:04:39;98511.44;;;18.68;39.91
33161;BME280;19522;45.656;11.302;2023-04-28T12:07:10;98508.19;;;18.72;40.69
33161;BME280;19522;45.656;11.302;2023-04-28T12:09:37;98451.31;;;18.60;40.19
33161;BME280;19522;45.656;11.302;2023-04-28T12:12:05;98496.34;;;18.83;40.31
33161;BME280;19522;45.656;11.302;2023-04-28T12:15:01;98499.53;;;19.15;41.04
33161;BME280;19522;45.656;11.302;2023-04-28T12:17:39;98504.81;;;19.05;39.26
33161;BME280;19522;45.656;11.302;2023-04-28T12:20:10;98478.91;;;18.89;40.05
33161;BME280;19522;45.656;11.302;2023-04-28T12:22:49;98503.53;;;19.08;39.68
33161;BME280;19522;45.656;11.302;2023-04-28T12:25:17;98505.56;;;19.12;39.21
33161;BME280;19522;45.656;11.302;2023-04-28T12:30:31;98500.72;;;19.60;38.86
33161;BME280;19522;45.656;11.302;2023-04-28T12:32:58;98423.50;;;18.97;38.38
33161;BME280;19522;45.656;11.302;2023-04-28T12:35:26;98483.97;;;19.33;37.35
33161;BME280;19522;45.656;11.302;2023-04-28T12:38:01;98475.25;;;19.24;37.69
33161;BME280;19522;45.656;11.302;2023-04-28T12:40:32;98487.13;;;19.42;36.63
33161;BME280;19522;45.656;11.302;2023-04-28T12:43:00;98461.75;;;19.11;37.47
33161;BME280;19522;45.656;11.302;2023-04-28T12:45:27;98443.75;;;19.32;37.18
33161;BME280;19522;45.656;11.302;2023-04-28T12:47:54;98447.00;;;19.75;36.29
33161;BME280;19522;45.656;11.302;2023-04-28T12:50:22;98475.19;;;19.65;35.72
33161;BME280;19522;45.656;11.302;2023-04-28T12:52:49;98467.16;;;19.92;35.47
33161;BME280;19522;45.656;11.302;2023-04-28T12:55:14;98480.28;;;19.85;35.70
33161;BME280;19522;45.656;11.302;2023-04-28T12:57:40;98482.72;;;20.16;35.46
33161;BME280;19522;45.656;11.302;2023-04-28T13:00:06;98481.97;;;20.20;36.11
33161;BME280;19522;45.656;11.302;2023-04-28T13:02:33;98456.97;;;20.10;34.01
33161;BME280;19522;45.656;11.302;2023-04-28T13:04:58;98451.88;;;20.36;33.98
33161;BME280;19522;45.656;11.302;2023-04-28T13:07:24;98459.38;;;19.89;33.79
33161;BME280;19522;45.656;11.302;2023-04-28T13:09:50;98449.16;;;20.75;34.39
33161;BME280;19522;45.656;11.302;2023-04-28T13:12:15;98443.97;;;21.01;33.73
33161;BME280;19522;45.656;11.302;2023-04-28T13:14:41;98429.78;;;20.92;33.20
33161;BME280;19522;45.656;11.302;2023-04-28T13:17:06;98448.19;;;20.86;33.39
33161;BME280;19522;45.656;11.302;2023-04-28T13:19:33;98436.75;;;20.78;31.88
33161;BME280;19522;45.656;11.302;2023-04-28T13:22:01;98429.28;;;20.95;32.51
33161;BME280;19522;45.656;11.302;2023-04-28T13:24:29;98404.53;;;20.44;33.45
33161;BME280;19522;45.656;11.302;2023-04-28T13:26:54;98437.56;;;20.95;31.92
33161;BME280;19522;45.656;11.302;2023-04-28T13:29:23;98426.38;;;21.07;32.78